createdAt,value
2022-12-25T00:00:20.934Z,7.66
2022-12-25T00:05:24.397Z,7.70
2022-12-25T00:10:28.482Z,7.61
2022-12-25T00:15:31.326Z,7.65
2022-12-25T00:20:34.127Z,7.61
2022-12-25T00:25:42.025Z,7.48
2022-12-25T00:30:44.784Z,7.38
2022-12-25T00:35:58.360Z,7.30
2022-12-25T00:41:06.077Z,7.09
2022-12-25T00:46:10.257Z,6.97
2022-12-25T00:51:13.219Z,6.77
2022-12-25T00:56:17.435Z,6.76
2022-12-25T01:01:20.314Z,6.74
2022-12-25T01:06:23.101Z,6.72
2022-12-25T01:11:27.233Z,6.62
2022-12-25T01:16:30.063Z,6.55
2022-12-25T01:21:32.849Z,6.50
2022-12-25T01:26:37.011Z,6.45
2022-12-25T01:31:39.759Z,6.26
2022-12-25T01:36:42.479Z,6.11
2022-12-25T01:41:48.042Z,6.26
2022-12-25T01:46:50.763Z,6.25
2022-12-25T01:51:55.631Z,6.42
2022-12-25T01:57:02.416Z,6.53
2022-12-25T02:02:05.413Z,6.59
2022-12-25T02:07:10.155Z,6.69
2022-12-25T02:12:19.355Z,6.74
2022-12-25T02:17:26.765Z,6.84
2022-12-25T02:22:35.913Z,6.83
2022-12-25T02:27:55.889Z,6.78
2022-12-25T02:33:15.481Z,6.77
2022-12-25T02:38:21.562Z,6.75
2022-12-25T02:43:58.028Z,6.77
2022-12-25T02:49:22.128Z,6.69
2022-12-25T02:54:46.415Z,6.63
2022-12-25T03:00:09.700Z,6.64
2022-12-25T03:05:33.486Z,6.72
2022-12-25T03:10:55.734Z,6.82
2022-12-25T03:16:17.313Z,6.93
2022-12-25T03:21:39.695Z,6.91
2022-12-25T03:27:02.350Z,6.94
2022-12-25T03:32:11.367Z,6.93
2022-12-25T03:37:38.130Z,6.95
2022-12-25T03:43:02.115Z,6.90
2022-12-25T03:48:24.839Z,6.88
2022-12-25T03:53:48.330Z,6.88
2022-12-25T03:59:10.136Z,6.87
2022-12-25T04:04:31.765Z,6.86
2022-12-25T04:09:51.988Z,6.87
2022-12-25T04:15:12.126Z,6.89
2022-12-25T04:20:33.854Z,6.84
2022-12-25T04:25:54.010Z,6.73
2022-12-25T04:31:14.635Z,6.65
2022-12-25T04:36:18.849Z,6.56
2022-12-25T04:41:21.603Z,6.55
2022-12-25T04:46:24.426Z,6.62
2022-12-25T04:51:28.524Z,6.56
2022-12-25T04:56:31.238Z,6.60
2022-12-25T05:01:34.051Z,6.61
2022-12-25T05:06:38.984Z,6.54
2022-12-25T05:11:41.740Z,6.48
2022-12-25T05:16:44.636Z,6.38
2022-12-25T05:21:48.789Z,6.23
2022-12-25T05:26:51.512Z,6.00
2022-12-25T05:31:54.256Z,5.86
2022-12-25T05:36:58.411Z,5.77
2022-12-25T05:42:01.223Z,5.82
2022-12-25T05:47:04.043Z,5.69
2022-12-25T05:52:08.285Z,5.60
2022-12-25T05:57:11.027Z,5.75
2022-12-25T06:02:13.826Z,5.82
2022-12-25T06:07:18.256Z,5.82
2022-12-25T06:12:20.940Z,5.75
2022-12-25T06:17:26.255Z,5.74
2022-12-25T06:22:31.089Z,5.66
2022-12-25T06:27:33.898Z,5.60
2022-12-25T06:32:36.685Z,5.56
2022-12-25T06:37:41.081Z,5.54
2022-12-25T06:42:43.867Z,5.57
2022-12-25T06:47:46.604Z,5.58
2022-12-25T06:52:50.758Z,5.62
2022-12-25T06:57:53.606Z,5.57
2022-12-25T07:02:56.651Z,5.49
2022-12-25T07:08:00.825Z,5.59
2022-12-25T07:13:03.542Z,5.69
2022-12-25T07:18:06.456Z,5.69
2022-12-25T07:23:10.791Z,5.73
2022-12-25T07:28:13.487Z,5.81
2022-12-25T07:33:17.370Z,5.94
2022-12-25T07:38:21.438Z,6.14
2022-12-25T07:43:25.187Z,6.30
2022-12-25T07:48:28.510Z,6.38
2022-12-25T07:53:32.928Z,6.45
2022-12-25T07:58:36.104Z,6.57
2022-12-25T08:03:38.933Z,6.66
2022-12-25T08:08:43.162Z,6.80
2022-12-25T08:13:46.044Z,6.85
2022-12-25T08:18:49.101Z,6.91
2022-12-25T08:23:53.240Z,6.98
2022-12-25T08:28:56.084Z,7.00
2022-12-25T08:34:00.352Z,7.06
2022-12-25T08:39:04.866Z,7.10
2022-12-25T08:44:07.745Z,7.06
2022-12-25T08:49:10.544Z,7.07
2022-12-25T08:54:14.816Z,7.09
2022-12-25T08:59:17.623Z,7.14
2022-12-25T09:04:20.603Z,7.17
2022-12-25T09:09:28.521Z,7.25
2022-12-25T09:14:32.156Z,7.40
2022-12-25T09:19:35.070Z,7.58
2022-12-25T09:24:39.862Z,7.70
2022-12-25T09:29:42.607Z,7.84
2022-12-25T09:34:45.793Z,7.97
2022-12-25T09:39:49.895Z,8.13
2022-12-25T09:44:55.201Z,8.23
2022-12-25T09:50:02.380Z,8.27
2022-12-25T09:55:17.889Z,8.24
2022-12-25T10:00:24.905Z,8.26
2022-12-25T10:05:53.681Z,8.29
2022-12-25T10:11:01.382Z,8.26
2022-12-25T10:16:14.792Z,8.19
2022-12-25T10:21:19.345Z,8.20
2022-12-25T10:26:25.304Z,8.33
2022-12-25T10:31:30.380Z,8.53
2022-12-25T10:36:35.227Z,8.61
2022-12-25T10:41:54.401Z,8.66
2022-12-25T10:46:59.043Z,8.74
2022-12-25T10:52:02.575Z,8.78
2022-12-25T10:57:16.177Z,8.77
2022-12-25T11:02:22.513Z,8.72
2022-12-25T11:07:26.694Z,8.75
2022-12-25T11:12:33.215Z,8.82
2022-12-25T11:17:36.775Z,8.86
2022-12-25T11:22:45.355Z,8.86
2022-12-25T11:27:58.259Z,8.81
2022-12-25T11:33:02.696Z,8.74
2022-12-25T11:38:05.467Z,8.69
2022-12-25T11:43:13.389Z,8.64
2022-12-25T11:48:19.497Z,8.66
2022-12-25T11:53:26.505Z,8.68
2022-12-25T11:58:33.806Z,8.68
2022-12-25T12:03:38.549Z,8.77
2022-12-25T12:08:42.046Z,9.01
2022-12-25T12:14:06.669Z,9.29
2022-12-25T12:19:13.877Z,9.24
2022-12-25T12:24:19.017Z,9.19
2022-12-25T12:29:28.265Z,9.14
2022-12-25T12:34:33.173Z,9.17
2022-12-25T12:39:38.213Z,9.23
2022-12-25T12:44:42.630Z,9.30
2022-12-25T12:49:45.462Z,9.38
2022-12-25T12:54:56.585Z,9.36
2022-12-25T13:00:08.590Z,9.32
2022-12-25T13:05:19.098Z,9.30
2022-12-25T13:10:25.687Z,9.23
2022-12-25T13:15:32.316Z,9.25
2022-12-25T13:20:43.117Z,9.23
2022-12-25T13:25:53.295Z,9.22
2022-12-25T13:31:04.747Z,9.14
2022-12-25T13:36:11.676Z,9.10
2022-12-25T13:41:36.766Z,9.04
2022-12-25T13:46:41.117Z,9.01
2022-12-25T13:51:44.214Z,8.97
2022-12-25T13:56:49.339Z,8.97
2022-12-25T14:01:54.564Z,8.98
2022-12-25T14:06:57.398Z,8.95
2022-12-25T14:12:00.131Z,8.93
2022-12-25T14:17:05.873Z,8.92
2022-12-25T14:22:12.464Z,8.88
2022-12-25T14:27:19.626Z,8.90
2022-12-25T14:32:25.453Z,8.91
2022-12-25T14:37:30.542Z,8.86
2022-12-25T14:42:35.528Z,8.81
2022-12-25T14:47:52.169Z,8.75
2022-12-25T14:52:55.245Z,8.78
2022-12-25T14:58:00.495Z,8.77
2022-12-25T15:03:06.585Z,8.74
2022-12-25T15:08:23.866Z,8.75
2022-12-25T15:13:27.607Z,8.72
2022-12-25T15:18:35.759Z,8.67
2022-12-25T15:23:38.507Z,8.63
2022-12-25T15:28:41.249Z,8.69
2022-12-25T15:33:45.382Z,8.70
2022-12-25T15:38:48.338Z,8.68
2022-12-25T15:43:51.059Z,8.74
2022-12-25T15:48:55.116Z,8.82
2022-12-25T15:53:58.958Z,8.78
2022-12-25T15:59:01.653Z,8.76
2022-12-25T16:04:05.907Z,8.81
2022-12-25T16:09:08.637Z,8.78
2022-12-25T16:14:11.446Z,8.77
2022-12-25T16:19:15.627Z,8.76
2022-12-25T16:24:18.904Z,8.76
2022-12-25T16:29:21.922Z,8.77
2022-12-25T16:34:26.238Z,8.76
2022-12-25T16:39:29.016Z,8.76
2022-12-25T16:44:31.748Z,8.76
2022-12-25T16:49:36.314Z,8.81
2022-12-25T16:54:39.087Z,8.80
2022-12-25T16:59:41.908Z,8.77
2022-12-25T17:04:46.584Z,8.75
2022-12-25T17:09:49.736Z,8.71
2022-12-25T17:14:53.311Z,8.71
2022-12-25T17:19:57.585Z,8.74
2022-12-25T17:25:00.375Z,8.76
2022-12-25T17:30:03.252Z,8.76
2022-12-25T17:35:07.969Z,8.82
2022-12-25T17:40:11.633Z,8.83
2022-12-25T17:45:14.330Z,8.77
2022-12-25T17:50:18.697Z,8.78
2022-12-25T17:55:21.398Z,8.78
2022-12-25T18:00:24.232Z,8.76
2022-12-25T18:05:28.407Z,8.75
2022-12-25T18:10:31.701Z,8.73
2022-12-25T18:15:38.041Z,8.73
2022-12-25T18:20:42.616Z,8.83
2022-12-25T18:25:45.496Z,8.93
2022-12-25T18:30:48.884Z,9.05
2022-12-25T18:35:58.203Z,9.17
2022-12-25T18:41:00.976Z,9.29
2022-12-25T18:46:05.702Z,9.43
2022-12-25T18:51:12.876Z,9.61
2022-12-25T18:56:18.832Z,9.76
2022-12-25T19:01:23.555Z,9.91
2022-12-25T19:06:28.836Z,10.02
2022-12-25T19:11:32.202Z,10.07
2022-12-25T19:16:35.512Z,10.13
2022-12-25T19:21:40.014Z,10.16
2022-12-25T19:26:43.910Z,10.25
2022-12-25T19:31:47.392Z,10.28
2022-12-25T19:36:51.666Z,10.33
2022-12-25T19:41:54.691Z,10.32
2022-12-25T19:46:57.504Z,10.39
2022-12-25T19:52:03.177Z,10.38
2022-12-25T19:57:06.003Z,10.39
2022-12-25T20:02:10.256Z,10.40
2022-12-25T20:07:14.434Z,10.42
2022-12-25T20:12:17.158Z,10.42
2022-12-25T20:17:19.897Z,10.44
2022-12-25T20:22:24.405Z,10.41
2022-12-25T20:27:27.216Z,10.52
2022-12-25T20:32:30.786Z,10.54
2022-12-25T20:37:34.849Z,10.60
2022-12-25T20:42:37.598Z,10.62
2022-12-25T20:47:40.276Z,10.61
2022-12-25T20:52:44.456Z,10.59
2022-12-25T20:57:47.173Z,10.55
2022-12-25T21:02:50.309Z,10.56
2022-12-25T21:07:54.539Z,10.52
2022-12-25T21:12:57.272Z,10.51
2022-12-25T21:18:00.041Z,10.54
2022-12-25T21:23:04.268Z,10.58
2022-12-25T21:28:07.055Z,10.61
2022-12-25T21:33:28.734Z,10.62
2022-12-25T21:38:33.167Z,10.65
2022-12-25T21:43:36.277Z,10.69
2022-12-25T21:48:39.802Z,10.69
2022-12-25T21:53:43.886Z,10.68
2022-12-25T21:58:47.104Z,10.71
2022-12-25T22:03:50.107Z,10.72
2022-12-25T22:08:54.284Z,10.74
2022-12-25T22:14:14.774Z,10.76
2022-12-25T22:19:35.311Z,10.76
2022-12-25T22:24:39.489Z,10.77
2022-12-25T22:29:42.298Z,10.77
2022-12-25T22:34:45.142Z,10.79
2022-12-25T22:39:49.309Z,10.80
2022-12-25T22:44:52.102Z,10.80
2022-12-25T22:49:54.888Z,10.80
2022-12-25T22:54:59.035Z,10.78
2022-12-25T23:00:01.991Z,10.79
2022-12-25T23:05:05.517Z,10.80
2022-12-25T23:10:10.553Z,10.79
2022-12-25T23:15:13.383Z,10.75
2022-12-25T23:20:33.884Z,10.70
2022-12-25T23:25:55.443Z,10.68
2022-12-25T23:30:58.223Z,10.66
2022-12-25T23:36:00.988Z,10.64
2022-12-25T23:41:05.155Z,10.62
2022-12-25T23:46:08.007Z,10.62
2022-12-25T23:51:10.817Z,10.62
2022-12-25T23:56:14.945Z,10.61
